createdAt,value
2022-08-07T00:00:42.650Z,3.08
2022-08-07T00:03:15.844Z,2.83
2022-08-07T00:05:50.751Z,3.42
2022-08-07T00:08:25.431Z,3.13
2022-08-07T00:10:58.954Z,3.83
2022-08-07T00:13:32.167Z,3.47
2022-08-07T00:16:07.533Z,3.20
2022-08-07T00:18:40.873Z,3.33
2022-08-07T00:21:55.946Z,3.08
2022-08-07T00:24:10.394Z,3.00
2022-08-07T00:26:49.296Z,3.22
2022-08-07T00:29:32.945Z,3.30
2022-08-07T00:32:07.512Z,3.05
2022-08-07T00:34:41.593Z,3.10
2022-08-07T00:37:14.823Z,3.65
2022-08-07T00:39:54.632Z,3.40
2022-08-07T00:42:29.201Z,2.97
2022-08-07T00:45:07.051Z,2.47
2022-08-07T00:48:10.406Z,3.08
2022-08-07T00:50:50.670Z,3.03
2022-08-07T00:53:24.843Z,2.95
2022-08-07T00:56:02.528Z,2.47
2022-08-07T00:58:37.307Z,2.60
2022-08-07T01:01:11.219Z,2.80
2022-08-07T01:03:55.674Z,2.85
2022-08-07T01:06:33.164Z,3.08
2022-08-07T01:09:07.044Z,2.88
2022-08-07T01:12:23.969Z,2.90
2022-08-07T01:14:37.025Z,2.65
2022-08-07T01:17:11.146Z,2.63
2022-08-07T01:19:54.226Z,2.80
2022-08-07T01:22:29.693Z,2.80
2022-08-07T01:25:39.912Z,2.92
2022-08-07T01:27:57.503Z,2.63
2022-08-07T01:30:33.626Z,3.70
2022-08-07T01:33:06.943Z,2.67
2022-08-07T01:35:54.096Z,3.13
2022-08-07T01:38:30.287Z,2.90
2022-08-07T01:43:52.731Z,3.05
2022-08-07T01:46:27.906Z,2.80
2022-08-07T01:49:04.523Z,2.95
2022-08-07T01:52:02.735Z,2.80
2022-08-07T01:54:36.835Z,2.70
2022-08-07T01:57:24.518Z,2.50
2022-08-07T02:00:12.953Z,3.72
2022-08-07T02:03:18.580Z,2.50
2022-08-07T02:05:59.622Z,2.70
2022-08-07T02:08:40.461Z,2.40
2022-08-07T02:11:31.059Z,2.50
2022-08-07T02:14:10.191Z,2.53
2022-08-07T02:17:06.046Z,2.85
2022-08-07T02:20:07.241Z,2.50
2022-08-07T02:22:38.371Z,2.58
2022-08-07T02:25:21.490Z,3.25
2022-08-07T02:28:24.724Z,2.95
2022-08-07T02:31:18.754Z,2.65
2022-08-07T02:34:03.135Z,2.80
2022-08-07T02:36:39.496Z,2.47
2022-08-07T02:39:17.342Z,2.72
2022-08-07T02:42:14.779Z,2.20
2022-08-07T02:44:53.619Z,2.80
2022-08-07T02:47:26.833Z,2.38
2022-08-07T02:50:10.730Z,2.53
2022-08-07T02:52:54.676Z,2.33
2022-08-07T02:56:03.153Z,2.50
2022-08-07T02:58:39.801Z,3.03
2022-08-07T03:01:35.604Z,2.70
2022-08-07T03:04:13.904Z,2.63
2022-08-07T03:06:49.901Z,2.80
2022-08-07T03:09:41.864Z,2.63
2022-08-07T03:12:22.357Z,2.50
2022-08-07T03:15:07.826Z,2.60
2022-08-07T03:17:54.028Z,2.78
2022-08-07T03:20:28.246Z,2.97
2022-08-07T03:23:04.264Z,2.42
2022-08-07T03:25:42.182Z,3.20
2022-08-07T03:28:37.247Z,2.92
2022-08-07T03:31:24.358Z,2.50
2022-08-07T03:34:01.147Z,2.55
2022-08-07T03:36:35.952Z,2.78
2022-08-07T03:39:14.681Z,2.90
2022-08-07T03:41:50.907Z,3.90
2022-08-07T03:44:31.826Z,2.50
2022-08-07T03:47:14.007Z,2.60
2022-08-07T03:49:52.266Z,2.80
2022-08-07T03:52:29.815Z,3.05
2022-08-07T03:55:07.862Z,2.90
2022-08-07T03:58:34.612Z,2.65
2022-08-07T04:00:37.580Z,2.70
2022-08-07T04:03:19.779Z,3.30
2022-08-07T04:05:58.793Z,2.60
2022-08-07T04:08:33.103Z,2.60
2022-08-07T04:12:27.984Z,2.95
2022-08-07T04:14:10.726Z,2.67
2022-08-07T04:16:58.111Z,2.30
2022-08-07T04:19:51.222Z,3.13
2022-08-07T04:22:27.370Z,2.78
2022-08-07T04:25:02.785Z,2.70
2022-08-07T04:27:43.996Z,2.50
2022-08-07T04:30:21.005Z,2.72
2022-08-07T04:32:58.035Z,3.15
2022-08-07T04:35:35.107Z,2.78
2022-08-07T04:38:11.414Z,3.10
2022-08-07T04:40:52.057Z,3.10
2022-08-07T04:44:13.090Z,2.92
2022-08-07T04:46:59.237Z,3.10
2022-08-07T04:49:47.372Z,3.22
2022-08-07T04:52:51.221Z,3.10
2022-08-07T04:58:11.765Z,2.60
2022-08-07T04:59:01.605Z,3.38
2022-08-07T05:01:40.504Z,3.13
2022-08-07T05:04:20.174Z,3.25
2022-08-07T05:07:01.370Z,3.22
2022-08-07T05:10:01.862Z,3.13
2022-08-07T05:12:46.592Z,2.80
2022-08-07T05:15:35.357Z,3.15
2022-08-07T05:18:15.389Z,3.20
2022-08-07T05:20:54.775Z,2.80
2022-08-07T05:23:35.990Z,3.08
2022-08-07T05:26:23.791Z,2.97
2022-08-07T05:29:04.263Z,2.95
2022-08-07T05:31:47.579Z,3.03
2022-08-07T05:34:27.608Z,2.63
2022-08-07T05:37:00.912Z,3.20
2022-08-07T05:40:06.571Z,3.13
2022-08-07T05:42:34.834Z,2.67
2022-08-07T05:45:11.914Z,2.83
2022-08-07T05:48:03.029Z,2.50
2022-08-07T05:50:39.476Z,2.35
2022-08-07T05:54:09.402Z,3.70
2022-08-07T05:56:13.839Z,2.72
2022-08-07T05:58:52.869Z,2.35
2022-08-07T06:01:35.635Z,2.80
2022-08-07T06:04:11.638Z,2.45
2022-08-07T06:06:56.510Z,2.70
2022-08-07T06:10:03.801Z,3.90
2022-08-07T06:12:33.155Z,2.85
2022-08-07T06:15:08.986Z,3.00
2022-08-07T06:17:53.684Z,2.63
2022-08-07T06:20:49.421Z,2.97
2022-08-07T06:23:45.781Z,2.97
2022-08-07T06:26:17.371Z,3.35
2022-08-07T06:28:53.007Z,2.60
2022-08-07T06:31:46.962Z,3.00
2022-08-07T06:34:20.831Z,3.42
2022-08-07T06:36:56.529Z,2.97
2022-08-07T06:40:17.916Z,2.78
2022-08-07T06:42:35.073Z,3.30
2022-08-07T06:45:18.031Z,2.75
2022-08-07T06:47:58.399Z,3.30
2022-08-07T06:50:36.100Z,2.83
2022-08-07T06:53:18.796Z,2.88
2022-08-07T06:56:07.501Z,3.55
2022-08-07T07:00:13.123Z,3.13
2022-08-07T07:01:50.698Z,4.10
2022-08-07T07:04:32.941Z,2.72
2022-08-07T07:07:10.468Z,2.58
2022-08-07T07:09:53.600Z,2.70
2022-08-07T07:12:41.854Z,2.35
2022-08-07T07:15:35.778Z,2.17
2022-08-07T07:18:33.102Z,2.22
2022-08-07T07:21:19.720Z,2.00
2022-08-07T07:24:06.231Z,1.85
2022-08-07T07:26:49.664Z,1.83
2022-08-07T07:29:56.781Z,2.30
2022-08-07T07:32:24.743Z,2.65
2022-08-07T07:35:01.921Z,2.10
2022-08-07T07:37:49.513Z,2.30
2022-08-07T07:40:31.011Z,2.95
2022-08-07T07:43:15.107Z,1.58
2022-08-07T07:46:40.289Z,2.08
2022-08-07T07:48:47.844Z,1.35
2022-08-07T07:51:24.158Z,1.70
2022-08-07T07:53:59.182Z,1.48
2022-08-07T07:56:35.447Z,2.20
2022-08-07T07:59:11.393Z,1.58
2022-08-07T08:02:02.467Z,1.50
2022-08-07T08:04:38.946Z,1.08
2022-08-07T08:07:20.218Z,1.73
2022-08-07T08:10:05.026Z,1.30
2022-08-07T08:12:59.098Z,1.55
2022-08-07T08:15:57.763Z,1.77
2022-08-07T08:18:33.864Z,1.40
2022-08-07T08:22:00.427Z,1.38
2022-08-07T08:24:44.782Z,1.30
2022-08-07T08:27:21.404Z,1.00
2022-08-07T08:29:59.331Z,2.10
2022-08-07T08:32:48.432Z,1.48
2022-08-07T08:35:28.843Z,1.40
2022-08-07T08:38:15.058Z,1.42
2022-08-07T08:40:57.482Z,1.85
2022-08-07T08:43:42.948Z,1.27
2022-08-07T08:46:40.551Z,0.98
2022-08-07T08:49:33.525Z,1.05
2022-08-07T08:52:30.385Z,1.15
2022-08-07T08:55:54.394Z,1.50
2022-08-07T08:58:28.301Z,1.80
2022-08-07T09:01:15.352Z,1.98
2022-08-07T09:04:00.212Z,1.42
2022-08-07T09:06:48.202Z,2.10
2022-08-07T09:09:48.259Z,1.10
2022-08-07T09:12:53.250Z,1.77
2022-08-07T09:16:22.308Z,1.60
2022-08-07T09:19:44.814Z,1.50
2022-08-07T09:24:33.193Z,1.02
2022-08-07T09:25:54.315Z,0.88
2022-08-07T09:30:01.306Z,1.52
2022-08-07T09:31:39.943Z,1.33
2022-08-07T09:34:27.383Z,1.30
2022-08-07T09:37:07.443Z,1.95
2022-08-07T09:39:53.953Z,1.05
2022-08-07T09:42:45.467Z,1.02
2022-08-07T09:47:24.875Z,0.75
2022-08-07T09:48:55.888Z,2.90
2022-08-07T09:52:10.755Z,1.02
2022-08-07T09:54:45.366Z,0.95
2022-08-07T09:57:54.013Z,1.65
2022-08-07T10:00:34.233Z,2.10
2022-08-07T10:04:06.979Z,1.17
2022-08-07T10:07:24.154Z,1.20
2022-08-07T10:11:07.706Z,1.75
2022-08-07T10:13:54.861Z,1.88
2022-08-07T10:16:59.578Z,1.33
2022-08-07T10:20:12.821Z,1.60
2022-08-07T10:23:07.566Z,0.80
2022-08-07T10:25:59.147Z,1.27
2022-08-07T10:29:00.034Z,1.55
2022-08-07T10:32:37.156Z,0.95
2022-08-07T10:35:25.569Z,1.33
2022-08-07T10:38:15.926Z,1.30
2022-08-07T10:41:08.674Z,2.20
2022-08-07T10:44:07.609Z,1.40
2022-08-07T10:46:50.451Z,1.00
2022-08-07T10:49:49.325Z,0.98
2022-08-07T10:52:34.276Z,1.15
2022-08-07T10:55:26.732Z,3.03
2022-08-07T10:58:33.278Z,1.17
2022-08-07T11:01:51.080Z,1.05
2022-08-07T11:04:40.969Z,1.40
2022-08-07T11:07:59.645Z,1.75
2022-08-07T11:10:42.176Z,1.50
2022-08-07T11:14:44.239Z,1.20
2022-08-07T11:16:30.542Z,2.10
2022-08-07T11:19:11.391Z,1.25
2022-08-07T11:21:55.655Z,1.52
2022-08-07T11:24:45.518Z,2.28
2022-08-07T11:28:01.726Z,1.52
2022-08-07T11:30:42.027Z,1.35
2022-08-07T11:33:54.048Z,1.35
2022-08-07T11:36:42.037Z,1.38
2022-08-07T11:39:58.970Z,1.50
2022-08-07T11:42:35.822Z,1.42
2022-08-07T11:45:35.406Z,1.98
2022-08-07T11:48:40.523Z,1.35
2022-08-07T11:51:41.422Z,1.30
2022-08-07T11:54:40.043Z,1.23
2022-08-07T11:57:57.800Z,1.73
2022-08-07T12:00:20.165Z,1.00
2022-08-07T12:03:54.904Z,1.00
2022-08-07T12:06:51.780Z,1.77
2022-08-07T12:09:38.967Z,1.40
2022-08-07T12:12:19.594Z,1.27
2022-08-07T12:15:05.136Z,1.13
2022-08-07T12:17:59.333Z,1.13
2022-08-07T12:20:46.332Z,0.90
2022-08-07T12:24:07.575Z,1.35
2022-08-07T12:26:46.728Z,1.10
2022-08-07T12:29:37.826Z,2.05
2022-08-07T12:32:20.788Z,1.02
2022-08-07T12:34:56.194Z,1.02
2022-08-07T12:38:09.623Z,1.30
2022-08-07T12:40:47.129Z,1.25
2022-08-07T12:44:03.700Z,1.88
2022-08-07T12:46:34.489Z,1.25
2022-08-07T12:49:40.138Z,1.20
2022-08-07T12:52:19.185Z,1.85
2022-08-07T12:55:05.676Z,1.40
2022-08-07T12:58:00.738Z,1.15
2022-08-07T13:00:50.303Z,1.50
2022-08-07T13:04:04.698Z,1.75
2022-08-07T13:07:00.910Z,2.63
2022-08-07T13:10:21.890Z,1.27
2022-08-07T13:13:48.247Z,1.30
2022-08-07T13:16:17.648Z,1.15
2022-08-07T13:19:01.114Z,1.98
2022-08-07T13:21:55.026Z,1.55
2022-08-07T13:24:43.800Z,1.58
2022-08-07T13:28:10.989Z,1.48
2022-08-07T13:30:39.913Z,1.65
2022-08-07T13:34:34.653Z,2.53
2022-08-07T13:36:26.085Z,1.50
2022-08-07T13:39:12.946Z,2.60
2022-08-07T13:42:03.114Z,1.20
2022-08-07T13:44:40.634Z,1.70
2022-08-07T13:47:25.241Z,1.45
2022-08-07T13:50:33.288Z,1.42
2022-08-07T13:52:57.692Z,1.90
2022-08-07T13:55:34.006Z,1.27
2022-08-07T13:58:31.542Z,1.73
2022-08-07T14:01:14.891Z,1.30
2022-08-07T14:04:05.350Z,1.30
2022-08-07T14:06:44.830Z,1.45
2022-08-07T14:10:01.509Z,1.30
2022-08-07T14:12:27.324Z,1.50
2022-08-07T14:15:07.225Z,1.33
2022-08-07T14:18:15.710Z,1.40
2022-08-07T14:20:48.708Z,1.98
2022-08-07T14:23:31.735Z,1.38
2022-08-07T14:26:29.925Z,1.45
2022-08-07T14:30:02.965Z,1.65
2022-08-07T14:32:03.095Z,1.40
2022-08-07T14:34:46.442Z,1.50
2022-08-07T14:37:39.267Z,1.83
2022-08-07T14:40:27.049Z,1.60
2022-08-07T14:43:57.782Z,1.42
2022-08-07T14:46:01.946Z,1.60
2022-08-07T14:48:39.462Z,1.58
2022-08-07T14:51:20.317Z,1.50
2022-08-07T14:56:50.846Z,1.50
2022-08-07T15:02:31.877Z,2.05
2022-08-07T15:05:20.303Z,1.30
2022-08-07T15:07:59.403Z,1.38
2022-08-07T15:10:33.884Z,1.52
2022-08-07T15:13:16.962Z,2.53
2022-08-07T15:15:54.696Z,2.05
2022-08-07T15:18:36.649Z,1.73
2022-08-07T15:21:44.205Z,1.40
2022-08-07T15:27:18.207Z,1.52
2022-08-07T15:30:04.602Z,1.70
2022-08-07T15:33:01.636Z,2.13
2022-08-07T15:36:00.493Z,2.20
2022-08-07T15:38:51.844Z,2.30
2022-08-07T15:44:28.507Z,4.05
2022-08-07T15:50:06.686Z,1.63
2022-08-07T15:52:41.541Z,1.80
2022-08-07T15:55:21.098Z,1.70
2022-08-07T15:58:00.453Z,1.45
2022-08-07T16:00:39.776Z,1.40
2022-08-07T16:03:22.042Z,1.20
2022-08-07T16:06:13.928Z,1.40
2022-08-07T16:08:49.685Z,1.50
2022-08-07T16:11:41.886Z,1.45
2022-08-07T16:14:28.583Z,1.95
2022-08-07T16:18:02.215Z,1.60
2022-08-07T16:20:43.710Z,1.48
2022-08-07T16:23:55.082Z,1.60
2022-08-07T16:26:59.527Z,1.70
2022-08-07T16:30:10.898Z,1.92
2022-08-07T16:34:02.826Z,1.40
2022-08-07T16:36:20.598Z,2.65
2022-08-07T16:39:40.627Z,1.55
2022-08-07T16:42:44.486Z,1.40
2022-08-07T16:46:40.441Z,1.90
2022-08-07T16:50:20.625Z,1.27
2022-08-07T16:52:52.574Z,1.75
2022-08-07T16:55:47.364Z,1.80
2022-08-07T16:58:47.964Z,1.40
2022-08-07T17:01:40.950Z,1.50
2022-08-07T17:04:32.123Z,1.55
2022-08-07T17:07:28.458Z,2.88
2022-08-07T17:10:33.301Z,1.40
2022-08-07T17:13:40.315Z,1.35
2022-08-07T17:16:45.901Z,1.10
2022-08-07T17:20:01.914Z,1.15
2022-08-07T17:22:39.086Z,1.08
2022-08-07T17:25:47.241Z,1.35
2022-08-07T17:28:19.647Z,0.95
2022-08-07T17:31:16.451Z,1.38
2022-08-07T17:34:15.002Z,1.30
2022-08-07T17:37:14.242Z,1.33
2022-08-07T17:40:07.867Z,1.10
2022-08-07T17:42:59.331Z,1.23
2022-08-07T17:45:39.531Z,1.25
2022-08-07T17:48:31.168Z,1.17
2022-08-07T17:51:21.388Z,1.00
2022-08-07T17:54:06.383Z,1.15
2022-08-07T17:56:49.455Z,0.95
2022-08-07T17:59:35.415Z,0.98
2022-08-07T18:02:15.330Z,0.77
2022-08-07T18:04:56.971Z,1.80
2022-08-07T18:07:43.882Z,1.00
2022-08-07T18:10:31.981Z,1.13
2022-08-07T18:13:16.549Z,1.25
2022-08-07T18:16:03.121Z,1.08
2022-08-07T18:21:07.391Z,1.33
2022-08-07T18:21:53.420Z,1.38
2022-08-07T18:24:43.678Z,1.30
2022-08-07T18:27:38.378Z,2.17
2022-08-07T18:30:31.468Z,1.17
2022-08-07T18:33:38.838Z,1.48
2022-08-07T18:36:44.162Z,1.15
2022-08-07T18:40:06.871Z,1.30
2022-08-07T18:42:59.087Z,1.38
2022-08-07T18:46:25.245Z,1.67
2022-08-07T18:50:05.866Z,1.63
2022-08-07T18:52:33.483Z,1.65
2022-08-07T18:54:52.978Z,1.45
2022-08-07T18:57:58.554Z,1.30
2022-08-07T19:00:56.583Z,1.38
2022-08-07T19:03:49.683Z,1.65
2022-08-07T19:06:38.017Z,1.27
2022-08-07T19:09:55.488Z,1.48
2022-08-07T19:12:26.531Z,1.20
2022-08-07T19:16:02.208Z,1.20
2022-08-07T19:18:18.945Z,1.63
2022-08-07T19:21:47.621Z,1.90
2022-08-07T19:24:30.691Z,1.40
2022-08-07T19:28:29.620Z,2.08
2022-08-07T19:31:03.913Z,1.65
2022-08-07T19:33:10.343Z,1.73
2022-08-07T19:35:57.970Z,1.38
2022-08-07T19:38:35.308Z,1.70
2022-08-07T19:41:38.982Z,1.73
2022-08-07T19:44:26.452Z,1.80
2022-08-07T19:47:10.780Z,1.65
2022-08-07T19:49:58.602Z,2.25
2022-08-07T19:52:37.398Z,1.67
2022-08-07T19:55:20.421Z,1.52
2022-08-07T19:58:13.545Z,1.85
2022-08-07T20:00:53.942Z,2.28
2022-08-07T20:03:35.591Z,2.42
2022-08-07T20:06:15.254Z,1.60
2022-08-07T20:09:03.159Z,2.08
2022-08-07T20:12:21.966Z,1.70
2022-08-07T20:14:54.197Z,1.75
2022-08-07T20:17:38.550Z,1.67
2022-08-07T20:20:15.296Z,1.83
2022-08-07T20:22:49.403Z,2.00
2022-08-07T20:25:25.490Z,2.80
2022-08-07T20:28:05.596Z,2.70
2022-08-07T20:30:46.857Z,2.53
2022-08-07T20:33:36.325Z,2.70
2022-08-07T20:36:17.111Z,2.15
2022-08-07T20:39:00.629Z,2.42
2022-08-07T20:41:51.672Z,2.10
2022-08-07T20:44:32.376Z,2.15
2022-08-07T20:47:09.498Z,2.00
2022-08-07T20:49:58.311Z,2.03
2022-08-07T20:52:51.354Z,2.08
2022-08-07T20:55:25.875Z,1.88
2022-08-07T20:58:03.956Z,1.55
2022-08-07T21:00:52.173Z,1.58
2022-08-07T21:03:26.892Z,1.70
2022-08-07T21:06:21.823Z,1.70
2022-08-07T21:09:12.890Z,2.15
2022-08-07T21:11:52.868Z,1.60
2022-08-07T21:14:34.825Z,2.15
2022-08-07T21:18:02.307Z,1.65
2022-08-07T21:20:09.787Z,2.10
2022-08-07T21:22:53.279Z,2.30
2022-08-07T21:25:56.498Z,1.70
2022-08-07T21:28:49.529Z,1.70
2022-08-07T21:32:42.439Z,1.90
2022-08-07T21:34:46.162Z,1.48
2022-08-07T21:37:57.174Z,1.98
2022-08-07T21:40:38.969Z,1.75
2022-08-07T21:43:22.835Z,1.80
2022-08-07T21:46:09.745Z,3.25
2022-08-07T21:48:57.434Z,1.95
2022-08-07T21:51:50.932Z,1.67
2022-08-07T21:54:48.500Z,1.85
2022-08-07T21:57:51.939Z,1.92
2022-08-07T22:00:26.346Z,1.70
2022-08-07T22:03:10.224Z,2.13
2022-08-07T22:05:56.779Z,2.55
2022-08-07T22:08:43.504Z,1.80
2022-08-07T22:11:19.664Z,2.00
2022-08-07T22:13:57.383Z,2.00
2022-08-07T22:16:43.937Z,1.58
2022-08-07T22:19:29.743Z,1.85
2022-08-07T22:22:17.691Z,1.70
2022-08-07T22:25:10.892Z,1.60
2022-08-07T22:28:08.435Z,1.90
2022-08-07T22:30:58.546Z,2.97
2022-08-07T22:33:56.437Z,1.90
2022-08-07T22:36:46.442Z,1.90
2022-08-07T22:39:28.707Z,2.15
2022-08-07T22:42:19.782Z,2.13
2022-08-07T22:44:59.730Z,2.13
2022-08-07T22:48:31.493Z,1.85
2022-08-07T22:51:36.804Z,1.83
2022-08-07T22:54:35.050Z,2.22
2022-08-07T22:57:30.330Z,2.25
2022-08-07T23:00:16.052Z,1.70
2022-08-07T23:03:19.565Z,1.70
2022-08-07T23:06:23.853Z,2.20
2022-08-07T23:10:05.112Z,1.88
2022-08-07T23:12:34.657Z,1.98
2022-08-07T23:16:04.253Z,2.33
2022-08-07T23:18:32.200Z,2.33
2022-08-07T23:21:30.267Z,2.20
2022-08-07T23:24:29.055Z,1.90
2022-08-07T23:27:33.313Z,2.30
2022-08-07T23:30:38.838Z,2.20
2022-08-07T23:34:33.817Z,2.55
2022-08-07T23:36:35.134Z,2.00
2022-08-07T23:39:21.935Z,2.38
2022-08-07T23:42:15.613Z,2.30
2022-08-07T23:45:33.132Z,2.25
2022-08-07T23:48:34.703Z,2.40
2022-08-07T23:52:58.189Z,2.30
2022-08-07T23:54:20.081Z,2.30
2022-08-07T23:57:18.597Z,2.45
